createdAt,value
2022-10-22T00:00:09.478Z,5.60
2022-10-22T00:02:36.716Z,4.90
2022-10-22T00:05:04.962Z,5.80
2022-10-22T00:07:32.416Z,5.13
2022-10-22T00:09:59.614Z,5.57
2022-10-22T00:12:27.424Z,5.50
2022-10-22T00:14:54.578Z,5.13
2022-10-22T00:17:21.803Z,5.65
2022-10-22T00:19:48.996Z,4.47
2022-10-22T00:22:16.419Z,4.65
2022-10-22T00:24:43.669Z,7.05
2022-10-22T00:27:11.981Z,4.50
2022-10-22T00:29:39.147Z,3.65
2022-10-22T00:32:07.217Z,4.30
2022-10-22T00:34:34.515Z,4.18
2022-10-22T00:37:01.681Z,4.50
2022-10-22T00:39:29.483Z,4.65
2022-10-22T00:41:58.219Z,4.15
2022-10-22T00:45:03.110Z,4.15
2022-10-22T00:48:07.251Z,3.95
2022-10-22T00:50:47.906Z,4.00
2022-10-22T00:53:21.830Z,4.25
2022-10-22T00:55:53.295Z,4.10
2022-10-22T00:58:25.275Z,4.65
2022-10-22T01:00:52.655Z,4.25
2022-10-22T01:03:20.836Z,5.05
2022-10-22T01:06:03.630Z,4.68
2022-10-22T01:08:52.636Z,4.10
2022-10-22T01:12:04.496Z,4.00
2022-10-22T01:15:02.317Z,4.07
2022-10-22T01:17:50.537Z,3.92
2022-10-22T01:20:35.550Z,3.35
2022-10-22T01:23:21.307Z,3.85
2022-10-22T01:25:57.262Z,3.67
2022-10-22T01:28:45.867Z,4.07
2022-10-22T01:31:16.548Z,3.85
2022-10-22T01:33:46.893Z,3.70
2022-10-22T01:36:16.591Z,3.97
2022-10-22T01:38:46.123Z,4.10
2022-10-22T01:41:14.266Z,3.60
2022-10-22T01:43:41.386Z,3.50
2022-10-22T01:46:11.382Z,3.88
2022-10-22T01:49:05.929Z,4.15
2022-10-22T01:51:41.839Z,3.83
2022-10-22T01:54:17.757Z,4.30
2022-10-22T01:57:04.651Z,3.92
2022-10-22T01:59:50.164Z,4.28
2022-10-22T02:02:41.061Z,3.78
2022-10-22T02:05:16.687Z,4.28
2022-10-22T02:07:50.026Z,4.07
2022-10-22T02:12:48.553Z,4.60
2022-10-22T02:15:18.814Z,4.97
2022-10-22T02:17:46.954Z,4.05
2022-10-22T02:20:22.097Z,4.00
2022-10-22T02:22:49.938Z,4.00
2022-10-22T02:25:17.523Z,4.00
2022-10-22T02:27:54.252Z,4.47
2022-10-22T02:30:22.964Z,4.00
2022-10-22T02:32:49.989Z,4.10
2022-10-22T02:35:22.393Z,3.70
2022-10-22T02:37:51.127Z,4.18
2022-10-22T02:40:18.965Z,3.60
2022-10-22T02:42:48.850Z,4.10
2022-10-22T02:45:18.337Z,4.28
2022-10-22T02:47:46.065Z,4.30
2022-10-22T02:50:13.606Z,4.30
2022-10-22T02:52:41.302Z,4.20
2022-10-22T02:55:09.108Z,4.10
2022-10-22T02:57:36.337Z,5.40
2022-10-22T03:00:05.926Z,4.35
2022-10-22T03:02:33.150Z,4.28
2022-10-22T03:05:01.017Z,4.70
2022-10-22T03:07:28.180Z,3.67
2022-10-22T03:09:55.277Z,4.28
2022-10-22T03:12:22.427Z,4.85
2022-10-22T03:14:49.575Z,4.63
2022-10-22T03:17:16.736Z,4.85
2022-10-22T03:19:43.841Z,4.65
2022-10-22T03:22:18.119Z,4.00
2022-10-22T03:24:48.023Z,3.60
2022-10-22T03:27:18.482Z,3.85
2022-10-22T03:29:46.928Z,3.25
2022-10-22T03:32:14.063Z,4.40
2022-10-22T03:34:41.162Z,4.40
2022-10-22T03:37:08.322Z,3.60
2022-10-22T03:39:36.439Z,3.17
2022-10-22T03:42:05.600Z,3.30
2022-10-22T03:44:33.566Z,3.38
2022-10-22T03:47:02.618Z,3.60
2022-10-22T03:49:30.341Z,3.42
2022-10-22T03:51:57.545Z,3.92
2022-10-22T03:54:24.796Z,3.15
2022-10-22T03:56:51.960Z,3.95
2022-10-22T03:59:19.078Z,3.40
2022-10-22T04:01:46.195Z,3.50
2022-10-22T04:04:13.290Z,4.68
2022-10-22T04:06:40.382Z,3.67
2022-10-22T04:09:07.629Z,3.45
2022-10-22T04:11:34.751Z,3.28
2022-10-22T04:14:01.926Z,3.83
2022-10-22T04:16:31.383Z,3.13
2022-10-22T04:18:58.923Z,3.15
2022-10-22T04:21:26.053Z,3.67
2022-10-22T04:23:53.575Z,3.58
2022-10-22T04:26:21.041Z,3.83
2022-10-22T04:28:50.857Z,3.83
2022-10-22T04:31:20.348Z,3.70
2022-10-22T04:33:47.931Z,3.15
2022-10-22T04:36:17.906Z,4.72
2022-10-22T04:38:46.845Z,3.25
2022-10-22T04:41:15.700Z,3.97
2022-10-22T04:43:43.402Z,3.63
2022-10-22T04:46:12.029Z,4.25
2022-10-22T04:48:41.795Z,3.40
2022-10-22T04:51:11.911Z,3.60
2022-10-22T04:53:40.506Z,3.20
2022-10-22T04:56:16.799Z,4.18
2022-10-22T04:58:44.095Z,3.90
2022-10-22T05:01:12.759Z,3.28
2022-10-22T05:03:40.197Z,3.03
2022-10-22T05:06:08.483Z,2.92
2022-10-22T05:08:35.800Z,4.13
2022-10-22T05:11:11.179Z,3.58
2022-10-22T05:13:38.740Z,3.25
2022-10-22T05:16:06.356Z,2.63
2022-10-22T05:18:37.950Z,3.00
2022-10-22T05:21:09.398Z,3.70
2022-10-22T05:23:36.566Z,3.40
2022-10-22T05:26:04.990Z,4.28
2022-10-22T05:28:32.808Z,3.40
2022-10-22T05:31:01.180Z,3.20
2022-10-22T05:33:30.437Z,3.90
2022-10-22T05:35:57.901Z,4.70
2022-10-22T05:38:25.442Z,3.17
2022-10-22T05:41:06.185Z,3.45
2022-10-22T05:43:34.329Z,3.53
2022-10-22T05:46:09.574Z,3.97
2022-10-22T05:48:37.448Z,3.25
2022-10-22T05:51:11.134Z,3.38
2022-10-22T05:53:40.919Z,4.03
2022-10-22T05:56:12.249Z,3.67
2022-10-22T05:58:39.651Z,3.05
2022-10-22T06:01:14.939Z,3.78
2022-10-22T06:03:42.505Z,3.80
2022-10-22T06:06:30.389Z,2.97
2022-10-22T06:09:21.284Z,3.17
2022-10-22T06:11:49.330Z,2.78
2022-10-22T06:14:17.854Z,3.33
2022-10-22T06:16:45.095Z,3.67
2022-10-22T06:19:14.667Z,3.65
2022-10-22T06:21:42.377Z,3.60
2022-10-22T06:24:10.455Z,3.25
2022-10-22T06:26:38.059Z,3.17
2022-10-22T06:29:05.683Z,4.53
2022-10-22T06:31:36.739Z,3.22
2022-10-22T06:34:08.027Z,3.53
2022-10-22T06:36:35.404Z,3.78
2022-10-22T06:39:03.727Z,4.05
2022-10-22T06:41:31.245Z,3.72
2022-10-22T06:43:58.406Z,3.65
2022-10-22T06:46:26.345Z,3.25
2022-10-22T06:49:02.408Z,3.08
2022-10-22T06:51:29.857Z,3.50
2022-10-22T06:53:58.239Z,3.13
2022-10-22T06:56:27.738Z,3.50
2022-10-22T06:58:56.602Z,4.10
2022-10-22T07:01:31.255Z,3.15
2022-10-22T07:03:58.773Z,3.15
2022-10-22T07:06:27.428Z,4.18
2022-10-22T07:08:56.337Z,3.10
2022-10-22T07:11:29.213Z,4.13
2022-10-22T07:13:58.666Z,2.67
2022-10-22T07:16:29.657Z,2.53
2022-10-22T07:18:58.287Z,2.45
2022-10-22T07:21:26.163Z,3.20
2022-10-22T07:23:53.460Z,2.72
2022-10-22T07:26:20.955Z,2.90
2022-10-22T07:28:48.543Z,2.45
2022-10-22T07:31:16.867Z,2.50
2022-10-22T07:33:44.915Z,2.00
2022-10-22T07:36:17.514Z,2.63
2022-10-22T07:38:54.407Z,2.22
2022-10-22T07:41:21.542Z,2.05
2022-10-22T07:43:48.638Z,2.20
2022-10-22T07:46:15.898Z,2.15
2022-10-22T07:48:42.998Z,2.53
2022-10-22T07:51:10.397Z,2.08
2022-10-22T07:53:37.955Z,2.65
2022-10-22T07:56:05.747Z,2.70
2022-10-22T07:58:33.397Z,2.45
2022-10-22T08:01:02.204Z,2.67
2022-10-22T08:03:29.696Z,3.13
2022-10-22T08:05:57.278Z,2.85
2022-10-22T08:08:27.127Z,2.20
2022-10-22T08:10:59.272Z,3.08
2022-10-22T08:13:27.521Z,2.47
2022-10-22T08:15:57.384Z,2.50
2022-10-22T08:18:25.453Z,2.60
2022-10-22T08:20:53.179Z,2.50
2022-10-22T08:23:24.490Z,2.20
2022-10-22T08:25:57.425Z,2.08
2022-10-22T08:28:24.668Z,2.10
2022-10-22T08:30:51.785Z,1.65
2022-10-22T08:33:18.902Z,2.00
2022-10-22T08:35:50.544Z,2.33
2022-10-22T08:38:19.032Z,2.92
2022-10-22T08:40:53.939Z,2.90
2022-10-22T08:43:39.814Z,2.45
2022-10-22T08:46:31.388Z,2.97
2022-10-22T08:49:04.483Z,3.83
2022-10-22T08:54:01.469Z,2.92
2022-10-22T08:56:29.874Z,2.88
2022-10-22T08:59:13.751Z,3.03
2022-10-22T09:01:48.975Z,3.40
2022-10-22T09:04:25.523Z,3.95
2022-10-22T09:06:55.191Z,3.58
2022-10-22T09:09:27.049Z,3.60
2022-10-22T09:11:56.649Z,4.35
2022-10-22T09:14:25.887Z,3.75
2022-10-22T09:17:05.047Z,3.85
2022-10-22T09:19:48.284Z,4.18
2022-10-22T09:22:31.963Z,4.15
2022-10-22T09:25:13.919Z,3.67
2022-10-22T09:27:41.230Z,4.13
2022-10-22T09:30:20.755Z,4.22
2022-10-22T09:33:00.078Z,3.90
2022-10-22T09:35:27.479Z,4.15
2022-10-22T09:37:56.860Z,4.40
2022-10-22T09:40:26.187Z,3.92
2022-10-22T09:42:53.278Z,3.45
2022-10-22T09:45:29.106Z,3.70
2022-10-22T09:48:14.321Z,3.60
2022-10-22T09:50:46.514Z,4.20
2022-10-22T09:53:26.698Z,4.07
2022-10-22T09:55:57.721Z,4.18
2022-10-22T09:58:25.773Z,5.40
2022-10-22T10:00:56.406Z,4.20
2022-10-22T10:03:28.146Z,3.75
2022-10-22T10:06:01.591Z,4.22
2022-10-22T10:08:32.152Z,4.00
2022-10-22T10:11:33.578Z,4.70
2022-10-22T10:14:35.383Z,4.28
2022-10-22T10:17:02.419Z,4.18
2022-10-22T10:19:47.598Z,4.55
2022-10-22T10:22:25.208Z,4.72
2022-10-22T10:25:17.439Z,4.50
2022-10-22T10:27:50.269Z,3.78
2022-10-22T10:30:21.160Z,5.00
2022-10-22T10:33:06.681Z,4.03
2022-10-22T10:36:02.154Z,3.95
2022-10-22T10:38:42.491Z,4.05
2022-10-22T10:41:35.591Z,4.55
2022-10-22T10:44:29.658Z,5.53
2022-10-22T10:47:12.347Z,3.60
2022-10-22T10:49:39.470Z,3.83
2022-10-22T10:52:36.422Z,4.43
2022-10-22T10:55:30.701Z,4.03
2022-10-22T10:58:14.389Z,4.35
2022-10-22T11:00:53.816Z,2.90
2022-10-22T11:03:46.087Z,3.50
2022-10-22T11:06:19.432Z,2.90
2022-10-22T11:09:19.401Z,4.25
2022-10-22T11:12:04.383Z,3.75
2022-10-22T11:14:55.938Z,4.20
2022-10-22T11:17:26.430Z,3.47
2022-10-22T11:20:01.418Z,3.78
2022-10-22T11:22:38.361Z,3.92
2022-10-22T11:25:23.740Z,3.78
2022-10-22T11:28:07.920Z,4.85
2022-10-22T11:30:40.535Z,5.20
2022-10-22T11:33:14.942Z,2.92
2022-10-22T11:35:45.662Z,3.65
2022-10-22T11:38:17.392Z,6.00
2022-10-22T11:41:00.302Z,3.40
2022-10-22T11:43:51.390Z,3.53
2022-10-22T11:46:18.429Z,2.90
2022-10-22T11:49:02.120Z,2.50
2022-10-22T11:51:37.407Z,3.22
2022-10-22T11:54:31.396Z,3.55
2022-10-22T11:57:20.950Z,4.35
2022-10-22T11:59:48.125Z,2.80
2022-10-22T12:02:46.037Z,3.28
2022-10-22T12:05:24.951Z,3.25
2022-10-22T12:07:57.134Z,3.25
2022-10-22T12:10:34.026Z,3.35
2022-10-22T12:13:22.627Z,3.42
2022-10-22T12:15:54.242Z,2.60
2022-10-22T12:18:26.058Z,3.10
2022-10-22T12:20:54.355Z,4.10
2022-10-22T12:23:30.587Z,3.72
2022-10-22T12:25:58.151Z,3.22
2022-10-22T12:28:25.510Z,4.55
2022-10-22T12:30:52.608Z,2.88
2022-10-22T12:33:22.629Z,3.03
2022-10-22T12:35:53.934Z,3.40
2022-10-22T12:38:25.462Z,3.70
2022-10-22T12:40:55.641Z,2.85
2022-10-22T12:43:30.742Z,3.47
2022-10-22T12:45:59.680Z,3.35
2022-10-22T12:48:34.365Z,2.83
2022-10-22T12:51:04.704Z,4.47
2022-10-22T12:53:39.264Z,3.15
2022-10-22T12:56:15.897Z,3.08
2022-10-22T12:58:47.026Z,3.40
2022-10-22T13:01:17.100Z,3.40
2022-10-22T13:03:50.666Z,3.28
2022-10-22T13:06:20.517Z,3.50
2022-10-22T13:08:56.797Z,3.67
2022-10-22T13:11:23.926Z,3.00
2022-10-22T13:13:51.013Z,3.35
2022-10-22T13:16:27.764Z,4.45
2022-10-22T13:18:54.969Z,5.18
2022-10-22T13:21:26.855Z,5.72
2022-10-22T13:24:02.779Z,6.25
2022-10-22T13:26:33.401Z,9.35
2022-10-22T13:29:01.408Z,7.95
2022-10-22T13:31:33.508Z,7.88
2022-10-22T13:34:11.729Z,7.32
2022-10-22T13:36:41.133Z,9.07
2022-10-22T13:39:17.104Z,8.18
2022-10-22T13:41:44.316Z,8.15
2022-10-22T13:44:11.401Z,7.57
2022-10-22T13:46:42.637Z,9.13
2022-10-22T13:49:16.781Z,8.25
2022-10-22T13:51:44.410Z,7.75
2022-10-22T13:54:17.969Z,6.63
2022-10-22T13:56:45.316Z,7.90
2022-10-22T13:59:12.710Z,7.80
2022-10-22T14:01:40.086Z,8.02
2022-10-22T14:04:10.645Z,7.25
2022-10-22T14:06:37.833Z,7.72
2022-10-22T14:09:13.985Z,6.95
2022-10-22T14:11:41.410Z,6.32
2022-10-22T14:14:09.197Z,8.85
2022-10-22T14:16:37.581Z,9.07
2022-10-22T14:19:07.582Z,6.93
2022-10-22T14:21:37.296Z,6.35
2022-10-22T14:24:07.102Z,7.35
2022-10-22T14:26:36.620Z,6.20
2022-10-22T14:29:09.353Z,6.40
2022-10-22T14:34:10.799Z,8.15
2022-10-22T14:36:37.937Z,7.38
2022-10-22T14:39:05.036Z,6.93
2022-10-22T14:41:32.265Z,6.30
2022-10-22T14:43:59.855Z,6.72
2022-10-22T14:46:27.114Z,6.68
2022-10-22T14:48:54.198Z,6.28
2022-10-22T14:51:21.887Z,6.78
2022-10-22T14:53:49.427Z,7.63
2022-10-22T14:56:21.172Z,6.63
2022-10-22T14:58:49.010Z,7.38
2022-10-22T15:01:16.585Z,7.03
2022-10-22T15:03:43.698Z,6.22
2022-10-22T15:06:10.937Z,6.60
2022-10-22T15:08:38.211Z,7.05
2022-10-22T15:11:07.542Z,7.60
2022-10-22T15:13:35.411Z,7.00
2022-10-22T15:16:09.662Z,7.22
2022-10-22T15:18:37.136Z,8.30
2022-10-22T15:21:13.200Z,6.90
2022-10-22T15:23:40.654Z,6.97
2022-10-22T15:26:09.546Z,9.05
2022-10-22T15:28:38.103Z,7.65
2022-10-22T15:31:06.583Z,7.60
2022-10-22T15:33:34.162Z,7.55
2022-10-22T15:36:15.449Z,6.70
2022-10-22T15:38:42.639Z,6.55
2022-10-22T15:41:12.575Z,7.03
2022-10-22T15:43:39.686Z,6.95
2022-10-22T15:46:13.309Z,8.93
2022-10-22T15:48:41.237Z,6.18
2022-10-22T15:51:10.400Z,7.95
2022-10-22T15:53:37.743Z,9.60
2022-10-22T15:56:05.292Z,7.85
2022-10-22T15:58:32.935Z,8.25
2022-10-22T16:01:08.410Z,8.13
2022-10-22T16:03:36.425Z,8.48
2022-10-22T16:06:04.857Z,8.40
2022-10-22T16:08:32.572Z,9.20
2022-10-22T16:10:59.949Z,9.93
2022-10-22T16:13:27.563Z,9.00
2022-10-22T16:15:54.762Z,8.43
2022-10-22T16:18:23.533Z,9.05
2022-10-22T16:20:50.763Z,8.45
2022-10-22T16:23:19.062Z,8.32
2022-10-22T16:25:46.659Z,7.60
2022-10-22T16:28:14.615Z,9.15
2022-10-22T16:30:42.104Z,9.40
2022-10-22T16:33:10.617Z,7.90
2022-10-22T16:35:42.390Z,8.27
2022-10-22T16:38:10.976Z,9.65
2022-10-22T16:40:38.483Z,9.15
2022-10-22T16:43:05.810Z,10.82
2022-10-22T16:45:32.968Z,8.60
2022-10-22T16:48:00.091Z,9.10
2022-10-22T16:50:27.600Z,10.75
2022-10-22T16:52:54.811Z,11.95
2022-10-22T16:55:21.922Z,11.15
2022-10-22T16:57:53.328Z,11.30
2022-10-22T17:00:21.341Z,12.02
2022-10-22T17:02:53.315Z,11.73
2022-10-22T17:05:21.248Z,14.15
2022-10-22T17:07:48.724Z,11.75
2022-10-22T17:10:19.251Z,12.73
2022-10-22T17:12:47.367Z,11.98
2022-10-22T17:15:15.061Z,12.55
2022-10-22T17:17:42.270Z,12.38
2022-10-22T17:20:11.310Z,14.30
2022-10-22T17:22:38.536Z,11.75
2022-10-22T17:25:15.114Z,11.25
2022-10-22T17:27:44.215Z,11.88
2022-10-22T17:30:23.298Z,10.93
2022-10-22T17:32:53.877Z,10.45
2022-10-22T17:35:21.038Z,11.65
2022-10-22T17:37:48.380Z,11.68
2022-10-22T17:40:15.738Z,9.93
2022-10-22T17:42:43.267Z,10.80
2022-10-22T17:45:10.502Z,11.40
2022-10-22T17:47:37.660Z,9.45
2022-10-22T17:50:04.991Z,11.63
2022-10-22T17:52:32.097Z,11.57
2022-10-22T17:54:59.247Z,10.52
2022-10-22T17:57:26.362Z,11.90
2022-10-22T17:59:53.513Z,11.73
2022-10-22T18:02:20.640Z,11.10
2022-10-22T18:04:51.223Z,12.38
2022-10-22T18:07:18.410Z,11.48
2022-10-22T18:09:45.531Z,12.20
2022-10-22T18:12:13.727Z,14.25
2022-10-22T18:14:41.033Z,12.23
2022-10-22T18:17:08.382Z,13.18
2022-10-22T18:19:35.596Z,13.55
2022-10-22T18:22:02.765Z,13.98
2022-10-22T18:24:29.918Z,13.77
2022-10-22T18:26:57.063Z,13.07
2022-10-22T18:29:43.142Z,13.10
2022-10-22T18:32:13.152Z,12.68
2022-10-22T18:34:40.499Z,13.00
2022-10-22T18:37:07.677Z,12.95
2022-10-22T18:39:34.864Z,12.38
2022-10-22T18:42:06.123Z,13.63
2022-10-22T18:44:34.577Z,12.10
2022-10-22T18:47:01.683Z,13.27
2022-10-22T18:49:28.871Z,12.70
2022-10-22T18:51:56.037Z,13.85
2022-10-22T18:54:24.392Z,13.20
2022-10-22T18:57:00.554Z,13.73
2022-10-22T18:59:30.025Z,13.75
2022-10-22T19:02:00.275Z,12.10
2022-10-22T19:04:33.033Z,11.93
2022-10-22T19:07:00.267Z,13.57
2022-10-22T19:09:27.450Z,11.70
2022-10-22T19:11:54.525Z,13.48
2022-10-22T19:14:22.131Z,12.18
2022-10-22T19:16:49.578Z,12.55
2022-10-22T19:19:19.203Z,12.27
2022-10-22T19:21:47.033Z,12.57
2022-10-22T19:24:15.892Z,14.05
2022-10-22T19:26:44.067Z,14.10
2022-10-22T19:29:11.186Z,12.18
2022-10-22T19:31:38.479Z,14.27
2022-10-22T19:34:05.566Z,13.15
2022-10-22T19:36:32.878Z,12.48
2022-10-22T19:39:00.407Z,12.23
2022-10-22T19:41:29.408Z,13.77
2022-10-22T19:43:57.976Z,12.00
2022-10-22T19:46:26.162Z,12.55
2022-10-22T19:48:54.172Z,13.02
2022-10-22T19:51:24.226Z,13.00
2022-10-22T19:53:58.133Z,11.88
2022-10-22T19:56:25.374Z,12.13
2022-10-22T19:58:52.563Z,13.82
2022-10-22T20:01:20.616Z,14.73
2022-10-22T20:03:48.849Z,13.40
2022-10-22T20:06:17.646Z,12.25
2022-10-22T20:08:45.427Z,14.27
2022-10-22T20:11:18.663Z,14.50
2022-10-22T20:13:49.675Z,13.57
2022-10-22T20:16:22.933Z,14.23
2022-10-22T20:18:53.027Z,15.23
2022-10-22T20:21:20.635Z,14.75
2022-10-22T20:23:51.398Z,14.68
2022-10-22T20:26:18.875Z,14.85
2022-10-22T20:28:45.999Z,15.10
2022-10-22T20:31:16.847Z,14.57
2022-10-22T20:33:44.008Z,15.48
2022-10-22T20:36:17.807Z,14.43
2022-10-22T20:38:47.918Z,14.40
2022-10-22T20:41:20.739Z,13.88
2022-10-22T20:43:49.482Z,14.48
2022-10-22T20:46:18.123Z,15.38
2022-10-22T20:48:45.415Z,15.68
2022-10-22T20:51:12.784Z,14.25
2022-10-22T20:53:39.927Z,13.63
2022-10-22T20:56:07.158Z,13.73
2022-10-22T20:58:34.363Z,14.43
2022-10-22T21:01:10.019Z,14.60
2022-10-22T21:03:37.927Z,14.25
2022-10-22T21:06:06.151Z,14.90
2022-10-22T21:08:33.281Z,15.07
2022-10-22T21:11:00.422Z,14.05
2022-10-22T21:13:27.530Z,13.18
2022-10-22T21:15:54.627Z,15.45
2022-10-22T21:18:21.751Z,14.05
2022-10-22T21:20:48.822Z,13.73
2022-10-22T21:23:16.004Z,12.75
2022-10-22T21:25:53.135Z,13.70
2022-10-22T21:28:20.438Z,14.57
2022-10-22T21:30:47.586Z,14.35
2022-10-22T21:33:14.770Z,13.55
2022-10-22T21:35:50.142Z,12.93
2022-10-22T21:38:17.255Z,13.65
2022-10-22T21:40:44.482Z,13.52
2022-10-22T21:43:11.593Z,13.32
2022-10-22T21:45:38.999Z,13.20
2022-10-22T21:48:06.359Z,15.45
2022-10-22T21:50:33.749Z,12.07
2022-10-22T21:53:00.827Z,13.55
2022-10-22T21:55:27.979Z,14.05
2022-10-22T21:57:55.055Z,14.30
2022-10-22T22:00:22.247Z,15.00
2022-10-22T22:02:49.341Z,13.07
2022-10-22T22:05:17.375Z,13.13
2022-10-22T22:07:44.474Z,14.45
2022-10-22T22:10:11.598Z,17.33
2022-10-22T22:12:38.845Z,14.45
2022-10-22T22:15:06.870Z,14.85
2022-10-22T22:17:34.070Z,13.63
2022-10-22T22:20:01.234Z,14.05
2022-10-22T22:22:29.726Z,15.45
2022-10-22T22:24:56.823Z,14.32
2022-10-22T22:27:23.928Z,15.75
2022-10-22T22:29:51.021Z,12.20
2022-10-22T22:32:18.122Z,16.17
2022-10-22T22:34:45.246Z,14.90
2022-10-22T22:37:12.371Z,14.18
2022-10-22T22:39:39.498Z,15.75
2022-10-22T22:42:06.630Z,13.93
2022-10-22T22:44:33.715Z,16.17
2022-10-22T22:47:00.960Z,15.15
2022-10-22T22:49:28.149Z,15.38
2022-10-22T22:51:55.327Z,15.52
2022-10-22T22:54:22.439Z,14.73
2022-10-22T22:56:50.161Z,15.18
2022-10-22T22:59:17.291Z,15.50
2022-10-22T23:01:45.372Z,16.00
2022-10-22T23:04:16.383Z,15.45
2022-10-22T23:06:43.567Z,13.18
2022-10-22T23:09:13.050Z,15.50
2022-10-22T23:11:42.187Z,14.65
2022-10-22T23:14:12.471Z,14.57
2022-10-22T23:16:45.326Z,15.52
2022-10-22T23:19:14.567Z,13.65
2022-10-22T23:21:46.155Z,15.02
2022-10-22T23:24:16.537Z,15.52
2022-10-22T23:26:46.891Z,17.10
2022-10-22T23:29:15.892Z,14.50
2022-10-22T23:31:44.354Z,14.65
2022-10-22T23:34:16.071Z,15.30
2022-10-22T23:36:43.262Z,17.50
2022-10-22T23:39:13.602Z,17.42
2022-10-22T23:41:40.950Z,16.08
2022-10-22T23:44:09.588Z,16.02
2022-10-22T23:46:38.471Z,16.92
2022-10-22T23:49:07.461Z,18.67
2022-10-22T23:51:35.127Z,16.80
2022-10-22T23:54:05.266Z,16.63
2022-10-22T23:56:33.344Z,15.60
2022-10-22T23:59:00.506Z,17.20
